createdAt,value
2023-01-21T00:00:57.781Z,11.47
2023-01-21T00:03:24.674Z,11.63
2023-01-21T00:05:51.510Z,9.40
2023-01-21T00:08:18.398Z,12.43
2023-01-21T00:10:44.980Z,12.80
2023-01-21T00:13:11.629Z,12.13
2023-01-21T00:15:38.252Z,12.10
2023-01-21T00:18:04.860Z,11.53
2023-01-21T00:20:31.524Z,11.47
2023-01-21T00:22:58.139Z,8.53
2023-01-21T00:25:24.804Z,11.07
2023-01-21T00:27:51.388Z,11.20
2023-01-21T00:30:18.453Z,9.33
2023-01-21T00:32:45.263Z,11.83
2023-01-21T00:35:12.324Z,11.13
2023-01-21T00:37:38.896Z,10.63
2023-01-21T00:40:06.552Z,9.43
2023-01-21T00:42:33.266Z,10.33
2023-01-21T00:45:00.085Z,12.07
2023-01-21T00:47:26.760Z,10.83
2023-01-21T00:49:53.354Z,11.10
2023-01-21T00:52:19.945Z,10.93
2023-01-21T00:54:46.672Z,10.73
2023-01-21T00:57:13.989Z,9.77
2023-01-21T00:59:40.854Z,10.43
2023-01-21T01:02:08.074Z,11.23
2023-01-21T01:04:34.695Z,10.47
2023-01-21T01:07:01.268Z,12.43
2023-01-21T01:09:27.951Z,11.93
2023-01-21T01:11:54.504Z,10.77
2023-01-21T01:14:22.222Z,11.37
2023-01-21T01:16:49.381Z,11.53
2023-01-21T01:19:16.340Z,9.30
2023-01-21T01:21:42.903Z,12.03
2023-01-21T01:24:09.526Z,10.20
2023-01-21T01:26:36.412Z,11.10
2023-01-21T01:29:06.336Z,9.17
2023-01-21T01:31:32.954Z,11.80
2023-01-21T01:33:59.665Z,12.07
2023-01-21T01:36:26.344Z,10.37
2023-01-21T01:38:53.861Z,11.47
2023-01-21T01:41:27.272Z,10.63
2023-01-21T01:43:58.756Z,10.97
2023-01-21T01:46:30.613Z,12.00
2023-01-21T01:49:00.188Z,9.53
2023-01-21T01:51:32.807Z,9.97
2023-01-21T01:53:59.730Z,9.67
2023-01-21T01:56:27.302Z,9.47
2023-01-21T01:58:54.053Z,8.93
2023-01-21T02:01:20.713Z,9.37
2023-01-21T02:03:52.981Z,8.50
2023-01-21T02:06:19.753Z,7.97
2023-01-21T02:08:47.270Z,7.87
2023-01-21T02:11:18.686Z,8.83
2023-01-21T02:13:49.711Z,8.20
2023-01-21T02:16:52.581Z,8.67
2023-01-21T02:19:56.623Z,9.17
2023-01-21T02:22:28.971Z,8.93
2023-01-21T02:25:16.843Z,8.43
2023-01-21T02:28:04.505Z,9.37
2023-01-21T02:30:47.089Z,8.70
2023-01-21T02:33:19.564Z,8.00
2023-01-21T02:36:05.918Z,7.50
2023-01-21T02:38:38.981Z,8.40
2023-01-21T02:41:15.516Z,7.47
2023-01-21T02:44:08.548Z,8.03
2023-01-21T02:46:53.152Z,8.03
2023-01-21T02:49:24.833Z,8.07
2023-01-21T02:51:51.522Z,9.43
2023-01-21T02:54:39.486Z,7.67
2023-01-21T02:57:08.246Z,7.77
2023-01-21T02:59:35.525Z,7.23
2023-01-21T03:02:21.052Z,8.57
2023-01-21T03:04:53.310Z,7.10
2023-01-21T03:07:26.783Z,6.87
2023-01-21T03:09:56.255Z,7.30
2023-01-21T03:12:39.443Z,8.30
2023-01-21T03:15:40.628Z,6.07
2023-01-21T03:18:13.152Z,7.70
2023-01-21T03:20:44.245Z,7.13
2023-01-21T03:23:14.293Z,6.30
2023-01-21T03:25:41.645Z,6.70
2023-01-21T03:28:12.038Z,7.73
2023-01-21T03:30:41.470Z,6.67
2023-01-21T03:33:09.641Z,6.87
2023-01-21T03:35:39.859Z,8.73
2023-01-21T03:38:17.146Z,6.47
2023-01-21T03:40:58.710Z,7.90
2023-01-21T03:43:25.625Z,8.83
2023-01-21T03:46:02.195Z,7.17
2023-01-21T03:48:36.938Z,8.30
2023-01-21T03:51:07.554Z,8.00
2023-01-21T03:53:34.564Z,7.00
2023-01-21T03:56:01.147Z,7.03
2023-01-21T03:58:27.950Z,8.97
2023-01-21T04:00:54.870Z,7.33
2023-01-21T04:03:21.551Z,6.30
2023-01-21T04:05:48.192Z,7.03
2023-01-21T04:08:14.868Z,7.20
2023-01-21T04:10:41.499Z,6.57
2023-01-21T04:13:08.106Z,5.87
2023-01-21T04:15:34.744Z,7.30
2023-01-21T04:18:01.336Z,7.60
2023-01-21T04:20:27.938Z,9.73
2023-01-21T04:22:54.547Z,6.20
2023-01-21T04:25:21.123Z,7.77
2023-01-21T04:27:47.703Z,7.03
2023-01-21T04:30:14.942Z,6.03
2023-01-21T04:32:41.776Z,7.30
2023-01-21T04:35:08.868Z,7.17
2023-01-21T04:37:35.559Z,7.10
2023-01-21T04:40:02.123Z,8.07
2023-01-21T04:42:29.401Z,9.30
2023-01-21T04:44:56.022Z,6.70
2023-01-21T04:47:22.586Z,8.03
2023-01-21T04:49:49.126Z,9.50
2023-01-21T04:52:15.711Z,7.50
2023-01-21T04:54:42.289Z,7.57
2023-01-21T04:57:08.929Z,5.27
2023-01-21T04:59:35.483Z,6.90
2023-01-21T05:02:02.094Z,7.30
2023-01-21T05:04:28.779Z,9.37
2023-01-21T05:06:56.154Z,7.40
2023-01-21T05:09:22.738Z,8.13
2023-01-21T05:11:49.301Z,8.33
2023-01-21T05:14:15.908Z,7.83
2023-01-21T05:16:42.481Z,14.27
2023-01-21T05:19:09.189Z,9.17
2023-01-21T05:21:35.764Z,10.90
2023-01-21T05:24:02.618Z,9.60
2023-01-21T05:26:29.176Z,8.60
2023-01-21T05:28:55.761Z,8.27
2023-01-21T05:31:22.383Z,9.40
2023-01-21T05:33:49.121Z,9.57
2023-01-21T05:36:15.702Z,8.17
2023-01-21T05:38:42.274Z,8.67
2023-01-21T05:41:08.838Z,9.90
2023-01-21T05:43:35.452Z,7.83
2023-01-21T05:46:02.251Z,7.37
2023-01-21T05:48:29.688Z,8.53
2023-01-21T05:50:58.258Z,7.30
2023-01-21T05:53:25.726Z,8.67
2023-01-21T05:55:56.630Z,9.50
2023-01-21T05:58:24.273Z,9.10
2023-01-21T06:00:51.118Z,7.63
2023-01-21T06:03:18.744Z,6.90
2023-01-21T06:05:46.194Z,8.87
2023-01-21T06:08:13.331Z,10.33
2023-01-21T06:10:39.904Z,8.67
2023-01-21T06:13:06.481Z,7.53
2023-01-21T06:15:33.692Z,9.93
2023-01-21T06:18:01.191Z,8.97
2023-01-21T06:20:30.500Z,8.03
2023-01-21T06:22:58.100Z,9.07
2023-01-21T06:25:25.933Z,9.33
2023-01-21T06:27:55.530Z,9.70
2023-01-21T06:30:23.206Z,9.57
2023-01-21T06:32:49.838Z,9.27
2023-01-21T06:35:16.733Z,7.93
2023-01-21T06:37:44.958Z,10.87
2023-01-21T06:40:12.791Z,8.80
2023-01-21T06:42:39.502Z,11.43
2023-01-21T06:45:06.914Z,11.23
2023-01-21T06:47:33.505Z,9.10
2023-01-21T06:50:00.091Z,10.67
2023-01-21T06:52:26.666Z,7.70
2023-01-21T06:54:53.224Z,7.97
2023-01-21T06:57:19.793Z,7.00
2023-01-21T06:59:46.421Z,8.03
2023-01-21T07:02:13.353Z,6.67
2023-01-21T07:04:39.939Z,8.93
2023-01-21T07:07:06.530Z,7.87
2023-01-21T07:09:33.367Z,7.03
2023-01-21T07:11:59.990Z,9.13
2023-01-21T07:14:26.655Z,6.63
2023-01-21T07:16:53.637Z,6.73
2023-01-21T07:19:20.194Z,5.93
2023-01-21T07:21:46.805Z,6.70
2023-01-21T07:24:13.438Z,7.17
2023-01-21T07:26:41.485Z,8.90
2023-01-21T07:29:08.566Z,7.03
2023-01-21T07:31:35.557Z,6.20
2023-01-21T07:34:02.530Z,7.57
2023-01-21T07:36:29.446Z,7.23
2023-01-21T07:38:56.030Z,9.10
2023-01-21T07:41:22.870Z,7.43
2023-01-21T07:43:50.167Z,8.13
2023-01-21T07:46:17.863Z,7.83
2023-01-21T07:48:44.491Z,9.27
2023-01-21T07:51:11.059Z,7.63
2023-01-21T07:53:37.622Z,8.10
2023-01-21T07:56:05.758Z,7.60
2023-01-21T07:58:32.501Z,8.53
2023-01-21T08:00:59.187Z,6.37
2023-01-21T08:03:25.845Z,7.33
2023-01-21T08:05:52.586Z,6.80
2023-01-21T08:08:19.147Z,8.67
2023-01-21T08:10:51.210Z,7.97
2023-01-21T08:13:17.781Z,6.17
2023-01-21T08:15:44.326Z,8.10
2023-01-21T08:18:10.930Z,5.63
2023-01-21T08:20:37.493Z,7.80
2023-01-21T08:23:04.072Z,7.30
2023-01-21T08:25:30.649Z,6.70
2023-01-21T08:27:59.132Z,5.93
2023-01-21T08:30:26.088Z,6.13
2023-01-21T08:32:52.669Z,6.63
2023-01-21T08:35:19.424Z,7.43
2023-01-21T08:37:47.019Z,13.87
2023-01-21T08:40:13.732Z,12.93
2023-01-21T08:42:40.271Z,9.57
2023-01-21T08:45:07.508Z,6.30
2023-01-21T08:47:34.201Z,5.77
2023-01-21T08:50:00.839Z,6.33
2023-01-21T08:52:27.467Z,5.83
2023-01-21T08:54:54.043Z,7.03
2023-01-21T08:57:20.803Z,6.73
2023-01-21T08:59:47.350Z,6.40
2023-01-21T09:02:13.955Z,6.27
2023-01-21T09:04:40.530Z,6.70
2023-01-21T09:07:07.150Z,4.97
2023-01-21T09:09:33.806Z,6.10
2023-01-21T09:12:00.374Z,6.10
2023-01-21T09:14:27.049Z,5.90
2023-01-21T09:16:55.852Z,7.27
2023-01-21T09:19:23.862Z,5.80
2023-01-21T09:21:52.412Z,5.70
2023-01-21T09:24:19.049Z,5.37
2023-01-21T09:26:45.796Z,5.80
2023-01-21T09:29:12.379Z,5.23
2023-01-21T09:31:39.062Z,5.30
2023-01-21T09:34:05.827Z,6.27
2023-01-21T09:36:34.641Z,5.20
2023-01-21T09:39:01.527Z,6.13
2023-01-21T09:41:44.208Z,6.30
2023-01-21T09:44:15.202Z,8.90
2023-01-21T09:46:46.020Z,5.27
2023-01-21T09:49:42.704Z,4.70
2023-01-21T09:52:36.408Z,5.33
2023-01-21T09:55:04.237Z,4.73
2023-01-21T09:57:58.834Z,5.40
2023-01-21T10:00:35.541Z,6.53
2023-01-21T10:03:17.289Z,4.67
2023-01-21T10:05:52.849Z,5.77
2023-01-21T10:09:00.474Z,5.67
2023-01-21T10:11:51.822Z,4.43
2023-01-21T10:14:55.285Z,4.50
2023-01-21T10:17:47.875Z,4.53
2023-01-21T10:20:51.834Z,5.90
2023-01-21T10:23:28.134Z,4.53
2023-01-21T10:25:55.279Z,4.67
2023-01-21T10:28:24.657Z,3.40
2023-01-21T10:30:57.047Z,4.60
2023-01-21T10:33:30.559Z,5.40
2023-01-21T10:36:18.421Z,3.43
2023-01-21T10:39:00.379Z,3.80
2023-01-21T10:41:36.343Z,3.87
2023-01-21T10:44:21.378Z,3.20
2023-01-21T10:47:06.781Z,3.63
2023-01-21T10:49:35.996Z,4.50
2023-01-21T10:52:34.686Z,3.13
2023-01-21T10:55:20.217Z,5.30
2023-01-21T10:58:00.326Z,3.80
2023-01-21T11:00:30.075Z,6.03
2023-01-21T11:03:13.753Z,4.17
2023-01-21T11:05:41.089Z,3.70
2023-01-21T11:08:09.445Z,3.73
2023-01-21T11:10:37.712Z,3.27
2023-01-21T11:13:11.600Z,4.17
2023-01-21T11:15:45.829Z,3.80
2023-01-21T11:18:34.817Z,4.47
2023-01-21T11:21:16.435Z,5.00
2023-01-21T11:24:15.184Z,6.70
2023-01-21T11:26:53.190Z,3.60
2023-01-21T11:29:23.036Z,5.63
2023-01-21T11:32:04.703Z,4.33
2023-01-21T11:34:32.847Z,3.73
2023-01-21T11:37:07.070Z,4.17
2023-01-21T11:39:42.801Z,3.80
2023-01-21T11:42:16.247Z,4.77
2023-01-21T11:44:58.918Z,3.47
2023-01-21T11:47:30.985Z,3.57
2023-01-21T11:50:16.158Z,4.13
2023-01-21T11:52:44.564Z,4.23
2023-01-21T11:55:22.737Z,5.00
2023-01-21T11:57:54.535Z,3.93
2023-01-21T12:00:28.313Z,4.20
2023-01-21T12:03:12.938Z,3.67
2023-01-21T12:05:46.988Z,3.90
2023-01-21T12:08:35.790Z,3.60
2023-01-21T12:14:26.720Z,4.30
2023-01-21T12:17:04.273Z,4.40
2023-01-21T12:19:43.545Z,3.93
2023-01-21T12:22:30.486Z,3.90
2023-01-21T12:25:24.218Z,3.77
2023-01-21T12:28:03.944Z,4.83
2023-01-21T12:30:48.884Z,4.17
2023-01-21T12:33:31.689Z,4.63
2023-01-21T12:36:06.056Z,4.00
2023-01-21T12:38:49.172Z,3.93
2023-01-21T12:41:26.997Z,3.80
2023-01-21T12:44:12.200Z,4.17
2023-01-21T12:46:44.662Z,3.90
2023-01-21T12:49:17.345Z,3.97
2023-01-21T12:51:47.418Z,4.03
2023-01-21T12:54:21.856Z,4.07
2023-01-21T12:57:11.030Z,4.17
2023-01-21T12:59:50.362Z,3.90
2023-01-21T13:02:33.023Z,3.27
2023-01-21T13:05:18.531Z,3.30
2023-01-21T13:07:57.629Z,4.00
2023-01-21T13:10:26.330Z,4.40
2023-01-21T13:13:06.378Z,4.50
2023-01-21T13:15:37.301Z,4.33
2023-01-21T13:18:11.959Z,3.30
2023-01-21T13:20:42.652Z,5.60
2023-01-21T13:23:15.336Z,5.93
2023-01-21T13:25:46.288Z,3.83
2023-01-21T13:28:21.859Z,3.80
2023-01-21T13:31:07.150Z,3.47
2023-01-21T13:33:47.573Z,4.43
2023-01-21T13:36:35.722Z,4.03
2023-01-21T13:39:48.158Z,4.10
2023-01-21T13:42:32.975Z,4.37
2023-01-21T13:45:02.532Z,4.90
2023-01-21T13:47:41.226Z,4.30
2023-01-21T13:50:21.954Z,3.50
2023-01-21T13:53:21.489Z,3.70
2023-01-21T13:56:22.605Z,4.30
2023-01-21T13:58:57.677Z,4.13
2023-01-21T14:01:30.299Z,4.77
2023-01-21T14:04:00.395Z,4.77
2023-01-21T14:06:40.702Z,4.40
2023-01-21T14:09:33.146Z,6.63
2023-01-21T14:12:14.792Z,4.50
2023-01-21T14:15:19.988Z,4.07
2023-01-21T14:18:31.982Z,4.00
2023-01-21T14:21:11.490Z,3.70
2023-01-21T14:23:46.233Z,4.47
2023-01-21T14:26:19.520Z,3.70
2023-01-21T14:28:54.863Z,5.87
2023-01-21T14:31:24.869Z,5.23
2023-01-21T14:33:59.138Z,5.83
2023-01-21T14:36:39.743Z,4.57
2023-01-21T14:39:31.221Z,5.23
2023-01-21T14:42:04.680Z,3.83
2023-01-21T14:44:54.776Z,4.83
2023-01-21T14:47:44.365Z,4.40
2023-01-21T14:50:11.499Z,4.63
2023-01-21T14:52:44.620Z,4.43
2023-01-21T14:55:30.807Z,4.10
2023-01-21T14:57:57.949Z,4.87
2023-01-21T15:00:33.288Z,4.37
2023-01-21T15:03:03.030Z,5.10
2023-01-21T15:05:36.585Z,5.47
2023-01-21T15:08:10.780Z,4.03
2023-01-21T15:10:39.452Z,3.97
2023-01-21T15:13:27.550Z,5.17
2023-01-21T15:16:15.130Z,4.43
2023-01-21T15:18:50.768Z,4.43
2023-01-21T15:21:42.362Z,5.13
2023-01-21T15:24:36.083Z,5.50
2023-01-21T15:27:22.837Z,4.80
2023-01-21T15:29:58.957Z,4.10
2023-01-21T15:32:38.691Z,4.60
2023-01-21T15:35:16.234Z,3.93
2023-01-21T15:37:46.064Z,3.87
2023-01-21T15:40:26.459Z,5.23
2023-01-21T15:43:15.013Z,4.47
2023-01-21T15:46:18.973Z,4.80
2023-01-21T15:49:05.599Z,6.03
2023-01-21T15:51:57.882Z,5.20
2023-01-21T15:54:30.660Z,4.63
2023-01-21T15:57:24.956Z,4.33
2023-01-21T16:00:03.433Z,4.10
2023-01-21T16:02:33.173Z,4.43
2023-01-21T16:05:24.212Z,4.13
2023-01-21T16:08:29.845Z,4.20
2023-01-21T16:11:34.253Z,5.10
2023-01-21T16:14:19.028Z,4.27
2023-01-21T16:17:13.002Z,5.00
2023-01-21T16:19:43.631Z,4.33
2023-01-21T16:22:12.410Z,4.83
2023-01-21T16:24:42.229Z,4.80
2023-01-21T16:27:25.069Z,4.60
2023-01-21T16:29:59.358Z,4.87
2023-01-21T16:32:27.135Z,4.47
2023-01-21T16:34:54.343Z,3.97
2023-01-21T16:37:26.941Z,5.67
2023-01-21T16:39:56.225Z,4.53
2023-01-21T16:42:26.442Z,4.23
2023-01-21T16:44:53.286Z,5.27
2023-01-21T16:47:25.855Z,4.67
2023-01-21T16:49:53.215Z,4.80
2023-01-21T16:52:20.698Z,5.37
2023-01-21T16:54:48.908Z,4.90
2023-01-21T16:57:15.524Z,4.87
2023-01-21T16:59:44.799Z,4.90
2023-01-21T17:02:21.393Z,4.50
2023-01-21T17:04:48.802Z,5.37
2023-01-21T17:07:26.368Z,4.80
2023-01-21T17:09:58.696Z,5.00
2023-01-21T17:12:26.441Z,5.20
2023-01-21T17:14:56.581Z,5.07
2023-01-21T17:17:23.946Z,4.37
2023-01-21T17:19:51.101Z,4.77
2023-01-21T17:22:20.792Z,4.67
2023-01-21T17:25:08.216Z,4.97
2023-01-21T17:27:37.398Z,5.20
2023-01-21T17:30:29.032Z,4.53
2023-01-21T17:32:58.289Z,4.73
2023-01-21T17:35:26.609Z,5.87
2023-01-21T17:37:57.496Z,6.00
2023-01-21T17:40:41.469Z,5.33
2023-01-21T17:43:24.247Z,5.73
2023-01-21T17:45:52.895Z,6.23
2023-01-21T17:48:39.583Z,5.10
2023-01-21T17:51:10.450Z,6.20
2023-01-21T17:53:44.724Z,5.20
2023-01-21T17:56:12.625Z,6.23
2023-01-21T17:58:46.343Z,6.13
2023-01-21T18:01:13.344Z,5.33
2023-01-21T18:03:40.347Z,6.50
2023-01-21T18:06:15.522Z,8.97
2023-01-21T18:08:42.146Z,5.53
2023-01-21T18:11:09.529Z,5.43
2023-01-21T18:13:36.110Z,6.63
2023-01-21T18:16:02.771Z,7.10
2023-01-21T18:18:30.087Z,7.67
2023-01-21T18:20:56.705Z,5.60
2023-01-21T18:23:23.414Z,5.97
2023-01-21T18:25:52.436Z,6.57
2023-01-21T18:28:24.383Z,6.67
2023-01-21T18:30:52.162Z,5.93
2023-01-21T18:33:19.255Z,6.97
2023-01-21T18:35:47.738Z,6.40
2023-01-21T18:38:19.044Z,7.13
2023-01-21T18:40:45.963Z,6.40
2023-01-21T18:43:12.648Z,6.87
2023-01-21T18:45:39.791Z,6.27
2023-01-21T18:48:11.962Z,7.40
2023-01-21T18:50:38.761Z,7.57
2023-01-21T18:53:06.124Z,6.97
2023-01-21T18:55:32.989Z,7.67
2023-01-21T18:57:59.689Z,7.33
2023-01-21T19:00:32.158Z,7.07
2023-01-21T19:03:00.125Z,7.07
2023-01-21T19:05:30.634Z,10.23
2023-01-21T19:07:57.539Z,8.90
2023-01-21T19:10:24.173Z,7.80
2023-01-21T19:12:50.948Z,7.23
2023-01-21T19:15:20.202Z,6.77
2023-01-21T19:17:47.060Z,7.63
2023-01-21T19:20:15.853Z,7.57
2023-01-21T19:22:42.822Z,7.73
2023-01-21T19:25:10.066Z,8.30
2023-01-21T19:27:39.725Z,9.03
2023-01-21T19:30:20.259Z,7.80
2023-01-21T19:32:47.499Z,8.67
2023-01-21T19:35:19.304Z,8.03
2023-01-21T19:37:49.534Z,8.57
2023-01-21T19:40:20.927Z,8.97
2023-01-21T19:42:48.909Z,8.33
2023-01-21T19:45:16.573Z,9.17
2023-01-21T19:47:45.027Z,8.27
2023-01-21T19:50:22.966Z,7.63
2023-01-21T19:52:51.328Z,8.33
2023-01-21T19:55:23.298Z,8.57
2023-01-21T19:57:56.673Z,9.40
2023-01-21T20:00:27.376Z,8.73
2023-01-21T20:02:54.106Z,7.90
2023-01-21T20:05:21.137Z,8.33
2023-01-21T20:07:49.421Z,8.63
2023-01-21T20:10:18.066Z,7.87
2023-01-21T20:12:45.124Z,9.17
2023-01-21T20:15:23.240Z,8.47
2023-01-21T20:17:52.687Z,8.50
2023-01-21T20:20:25.212Z,9.60
2023-01-21T20:22:52.232Z,8.83
2023-01-21T20:25:35.066Z,10.97
2023-01-21T20:28:02.565Z,10.20
2023-01-21T20:30:32.035Z,7.47
2023-01-21T20:33:01.487Z,9.73
2023-01-21T20:35:28.516Z,8.70
2023-01-21T20:37:56.526Z,8.50
2023-01-21T20:40:28.490Z,8.67
2023-01-21T20:42:56.257Z,8.97
2023-01-21T20:45:35.646Z,8.43
2023-01-21T20:48:03.192Z,9.30
2023-01-21T20:50:35.374Z,9.17
2023-01-21T20:53:03.521Z,8.70
2023-01-21T20:55:30.549Z,8.33
2023-01-21T20:57:57.416Z,8.50
2023-01-21T21:00:29.139Z,8.70
2023-01-21T21:02:56.234Z,9.03
2023-01-21T21:05:23.959Z,9.33
2023-01-21T21:07:50.669Z,9.90
2023-01-21T21:10:21.327Z,9.33
2023-01-21T21:12:48.821Z,8.33
2023-01-21T21:15:16.730Z,9.13
2023-01-21T21:17:43.930Z,8.53
2023-01-21T21:20:31.831Z,8.20
2023-01-21T21:22:58.527Z,8.93
2023-01-21T21:25:30.755Z,8.90
2023-01-21T21:27:57.439Z,8.00
2023-01-21T21:30:25.268Z,7.97
2023-01-21T21:32:52.246Z,9.70
2023-01-21T21:35:39.813Z,7.73
2023-01-21T21:38:18.022Z,8.60
2023-01-21T21:40:46.088Z,7.23
2023-01-21T21:43:46.421Z,7.13
2023-01-21T21:46:31.382Z,7.50
2023-01-21T21:48:58.082Z,8.40
2023-01-21T21:51:25.318Z,7.30
2023-01-21T21:53:52.102Z,7.37
2023-01-21T21:56:20.558Z,8.07
2023-01-21T21:58:47.800Z,7.20
2023-01-21T22:01:34.714Z,8.03
2023-01-21T22:04:02.806Z,6.57
2023-01-21T22:06:29.753Z,8.43
2023-01-21T22:08:58.669Z,7.80
2023-01-21T22:11:26.696Z,7.17
2023-01-21T22:13:53.787Z,6.67
2023-01-21T22:16:23.894Z,7.73
2023-01-21T22:18:51.549Z,6.43
2023-01-21T22:21:23.555Z,7.07
2023-01-21T22:23:50.367Z,11.53
2023-01-21T22:26:20.107Z,5.90
2023-01-21T22:28:47.246Z,6.77
2023-01-21T22:31:24.821Z,6.00
2023-01-21T22:33:51.714Z,6.17
2023-01-21T22:36:20.224Z,6.10
2023-01-21T22:38:47.225Z,7.43
2023-01-21T22:41:15.672Z,6.93
2023-01-21T22:43:44.864Z,6.63
2023-01-21T22:46:13.691Z,6.07
2023-01-21T22:48:41.609Z,6.37
2023-01-21T22:51:11.206Z,6.70
2023-01-21T22:53:40.118Z,6.37
2023-01-21T22:56:07.441Z,6.90
2023-01-21T22:58:34.631Z,7.37
2023-01-21T23:01:02.050Z,6.73
2023-01-21T23:03:29.083Z,7.10
2023-01-21T23:06:02.963Z,7.63
2023-01-21T23:08:29.831Z,7.00
2023-01-21T23:11:01.645Z,7.67
2023-01-21T23:13:28.480Z,6.93
2023-01-21T23:15:55.140Z,8.33
2023-01-21T23:18:22.056Z,6.40
2023-01-21T23:20:48.820Z,6.60
2023-01-21T23:23:15.462Z,6.83
2023-01-21T23:25:42.809Z,7.13
2023-01-21T23:28:09.702Z,7.07
2023-01-21T23:30:36.838Z,8.07
2023-01-21T23:33:03.665Z,8.93
2023-01-21T23:35:31.498Z,7.50
2023-01-21T23:37:58.513Z,7.87
2023-01-21T23:40:25.169Z,7.57
2023-01-21T23:42:51.795Z,8.00
2023-01-21T23:45:18.522Z,8.43
2023-01-21T23:47:47.296Z,8.30
2023-01-21T23:50:13.933Z,8.40
2023-01-21T23:52:41.090Z,8.23
2023-01-21T23:55:09.482Z,8.37
2023-01-21T23:57:36.670Z,7.30
